Timeline UpdatesTrip UpdatesNews PostsPvt PostsTravel TipsAdmin PostsConv PostsFollowed PostsChat RequestsBlog PostsPNR Posts

Disclaimer
Search
 
 
Fri Aug 22, 2014 01:31:24 ISTHomeTrainsΣChainsAtlasPNRForumGalleryNewsFAQTripsMembersLoginFeedback
No Recent News for this Train
Other Trains in the News **new
Latest...
⇐ Return Journey: Train# 59812

59811/Haldighati Passenger

Feb 23 2014 (1:14AM)
Change Departure Station:
Change Arrival Station:
Post a Train Travel TipPost a Train Travel Tip **new
Post a Comment/Question/Picture/VideoPost a Comment/Question/Picture/Video
Pantry/Catering
✕ NO Pantry Car
✓ Catering Avbl
Loco/Rake Reversals
KOTA/Kota Junction (5);
RSA - Rake Sharing
Comes to AF as 59811, departs as 59814
Rake/Coach Composition
Loco-SLR+Handicapped-GS1-GS2-GS3-GS4-GS5-S1-S2-S3-GS6-GS7-GS8-SLR; Total Length-13 Coaches
Loco
Rtm-Kota:- WDM 3A RTM shed Kota-AF:- WAM 4E BRC shed Re# 549005-21
News    PNR    Forum    Time-Table    Availability    Fare Chart    Map    Arr/Dep History    Trips    Gallery    ΣChains    X/O    Timeline    
Travel Time: 1h 28m    7 halts    Distance: 50 km    Avg Speed: 34 km/hr
Type: Passenger
Zone: WR/Western
Departs @ 04:32 (Avg 22m late)
Platform# ???
SMTWTFS
Rupbas/RBS 
Arrives @ 06:00 (Avg 4m late)
Platform# 2
SMTWTFS
Agra Fort/AF 

7 halts. 7 intermediate Stations between Rupbas and Agra Fort

Show ALL intermediate Stations  Show Old Time-Table

#CodeStation NameX/OArrivesAvgDepartsAvgHaltPFDay#KmSpeedElevZoneAddress
1RTMRatlam Junction (7)  -09:55+2--1-647.952495mWRRatlam, Madhya Pradesh
2NLINamli  10:10+1010:11+121m--1-635.063494mWRNamli, Madhya Pradesh
3BRLABrayla Chaurasi  10:22+1310:23+131m--1-623.456486mWRBadayla Chorasi Rd, Madhya Pradesh
4JAOJaora (2)  10:32+1410:33+151m11-615.072476mWRJaora, Madhya Pradesh
5DODDhodhar  10:47+1710:48+181m--1-598.156478mWRDhodar, Madhya Pradesh
6KHNRKachnara  10:56-10:57-1m--1-590.657492mWRKachnara, Madhya Pradesh
7DLDDalauda  11:10+2011:11+211m--1-578.273469mWRDalauda, Madhya Pradesh
8MDSMandsor (2)  11:23+2011:24+231m--1-563.659436mWRMandsaur, Madhya Pradesh
9PIPPiplia (1)  11:40+2611:41+261m11-547.948472mWRPanth Pipalia, Madhya Pradesh
10MLGMalhargarh  11:51+2711:52+281m--1-539.924466mWRMalhargarh, Madhya Pradesh
11HKLHarkia KhalX  12:22+912:23+101m--1-527.736455mWRState Highway 31, Rajasthan
12NMHNimach (3)X  12:45+112:55+210m--1-514.665490mWRMDR 11A, Madhya Pradesh
13BIWKBisalwas Kalan  13:04+713:05+71m--1-504.840477mWRMDR 11A, Rajasthan
14JWOJawad Road  13:15+613:16+61m--1-498.162462mWRNayagaon, Rajasthan
15NBHNimbahera (1)  13:26+613:27+71m11-487.956441mWRNimbahera, Rajasthan
16GRFGambhiri Road  13:36+913:37+91m11-479.555441mWRNational Highway 79, Rajasthan
17SMPShambhupura  13:47+813:48+81m--1-470.358423mWRShambhupura, Rajasthan
18CORChittaurgarh Junction (5)X  14:00+414:10+310m--1-458.615403mWRChittorgarh, Rajasthan
19CNAChanderiya (2)  14:38-214:40+02m--1-451.745408mWRChittorgarh, Rajasthan
20BSSLBasi Beriasal  15:03+415:04+101m--1-434.371412mWCRBassi, Rajasthan
21PSLIParsoli  15:18+1115:20+102m--1-417.663380mWCRNH 76, Rajasthan
22BNDIBarundini  15:29+1315:30+151m--1-408.251373mWCRNational Highway 76, Rajasthan
23MLGHMandalgarh  15:48+1415:50+172m--1-393.148382mWCRMandalgarh, Rajasthan
24SMPAShampura  16:10+1716:12+162m--1-377.162395mWCRMandalgarh, Rajasthan
25URMLUpramal  16:22+1516:23+161m--1-366.952390mWCRMDR 41, Rajasthan
26JNRIJalindri  16:31+1816:32+281m--1-359.955 WCR
27SNARSrinagar RajasthanX  16:58+3317:00+322m--1-335.913259mWCRShreenagar RJ, Rajasthan
28BUDIBundi  17:48+1217:50+132m--1-325.635256mWCRBundi, Rajasthan
29THEAThaleraO  18:14+318:15+451m--1-311.614248mWCRTalera, Rajasthan
30KOTAKota Junction (5)↵¶20:20+221:00+140m11-282.941256mWCRKota, Rajasthan
31GQLGurla  21:08+521:10+52m--1-277.553251mWCRSH 33, Rajasthan
32KPTNKeshorai Patan  21:19+421:20+91m--1-269.573243mWCRSH 33, Rajasthan
33AREArnetha  21:29+921:30+101m--1-258.661239mWCRShreepura, Rajasthan
34KPZKaprenX  21:39+821:40+141m--1-249.467234mWCRKota - Lalsot Mega Highway, Rajasthan
35GKBGhataka VaranaX  21:49+1421:50+181m--1-239.462232mWCRSH 33, Rajasthan
36LBNLaban (2)X  21:59+1722:00+181m--1-230.050225mWCRBundi, Rajasthan
37LKELakheri (3)XO  22:09+1722:10+211m--1-222.466228mWCRBundi, Rajasthan
38IDGIndargarh Sumerganj Mandi (2)X  22:20+2222:22+302m--1-211.578247mWCRIndargarh, Rajasthan
39AMLIAmliX  22:32+3222:34+322m--1-198.465233mWCRSawai Madhopur, Rajasthan
40RWJRawania DungarX  22:41+3322:43+422m--1-190.856266mWCRSawai Madhopur, Rajasthan
41KTAKushtalaX  22:52+4322:54+442m--1-182.327283mWCRNH 116, Rajasthan
42SWMSawai Madhopur Junction (4)XO  23:10+2123:15+215m--1-175.277266mWCRSawai Madhopur, Rajasthan
43RNTRanthambhore  23:23+4423:25+442m--1-165.0110248mWCRMDR 111, Rajasthan
44MXLMokholi  23:30+4623:35+435m--1-155.865242mWCRMDR 111, Rajasthan
45MLZMalarna  23:45+4223:47+442m--1-145.027236mWCRSawai Madhopur, Rajasthan
46NMDNomodaX  00:03+3500:04+411m--2-137.958238mWCRMDR 111, Rajasthan
47NNWNarayanpur Tatwara (2)  00:14+3600:15+361m--2-128.271256mWCRSawai Madhopur, Rajasthan
48LRULalpur UmriX  00:24+4300:25+561m--2-117.613276mWCRSH 1, Rajasthan
49GGCGangapur City (3)O  00:55+3001:05+2710m--2-111.364270mWCRGangapur, Rajasthan
50COOChhoti Odai  01:17+4001:18+541m--2-98.547257mWCRSH 25, Rajasthan
51PDZPiliodaXO  01:28+5201:30+512m--2-90.745247mWCRSH 1, Rajasthan
52SMBJShri Mahabirji (3)X  01:48+4401:50+462m--2-77.234240mWCRKarauli, Rajasthan
53HANHindaun City (2)X  02:08+3502:10+342m--2-67.072230mWCRKarauli, Rajasthan
54FSPFateh Singhpura  02:21+2502:23+252m--2-53.871223mWCRState Highway 1, Rajasthan
55DYDumariya (2)  02:32+2702:34+262m--2-43.212211mWCRState Highway 1, Rajasthan
56BXNBayana Junction (3)  03:20+1203:45+025m--2-34.145198mWCRBayana, Rajasthan
57BAMABirambad (1)XO  03:51-03:52-1m12-29.646196mNCRDumariya, Rajasthan
58BRBandh Bareta (1)  03:58+1903:59+211m12-25.049203mNCRDumariya, Rajasthan
59NGLTNaglatula (1)  04:06-04:07-1m12-19.354209mNCRBayana, Rajasthan
60BIQBansi Paharpur (1)  04:14+2104:15+221m12-13.050216mNCRRupbas, Rajasthan
61DXKDhana Kherli (1)  04:22-04:23-1m12-7.254192mNCRFatehpur Sikri, Uttar Pradesh
62RBS»Rupbas (2)»  04:31+1904:32+221m--20.040178mNCRJAGNER ROAD, Rajasthan
63AEDAulenda (1)  04:40-04:41-1m125.359179mNCRKiraoli, Uttar Pradesh
64FTSFatehpur Sikri (2)  04:50+2104:51+221m--214.238176mNCRAgra, Uttar Pradesh
65SNPRSingarpur (1)  04:59-05:00-1m1219.362168mNCRRupbas, Rajasthan
66KLBKiraoli (1)  05:07+2005:08+221m1226.654174mNCRKiraoli, Uttar Pradesh
67MIQMirhakur (1)  05:17+1505:18+151m1234.740172mNCRIdgah Agra, Uttar Pradesh
68PTLIPathauli (1)X  05:27+1405:28+141m1240.757174mNCRAgra Fort, Uttar Pradesh
69IDHIdgah Agra Junction (3)  05:36+1305:38+132m--248.26168mNCRAgra, Uttar Pradesh
70AF•Agra Fort (3)•  06:00+4-2250.4-170mNCRRakabganj, Uttar Pradesh
Scroll to Top
Scroll to Bottom